Time;durP1;ratioP1;P1;durP2;ratioP2;P2;SDS_P1;SDS_P2;PMS_P1;PMS_P2;Temp;Humidity;BMP_temperature;BMP_pressure;BME280_temperature;BME280_humidity;BME280_pressure;Samples;Min_cycle;Max_cycle;Signal;HPM_P1;HPM_P2
2021/08/19 00:00:00;;;;;;;9.88;5.43;;;17.50;91.50;;;;;;4862638;29;20447;-84
2021/08/19 00:02:26;;;;;;;10.00;5.75;;;17.40;91.40;;;;;;4861873;29;20410;-85
2021/08/19 00:04:52;;;;;;;8.07;5.40;;;17.40;91.50;;;;;;4861458;29;20159;-85
2021/08/19 00:07:18;;;;;;;7.55;5.25;;;17.40;91.50;;;;;;4862219;29;20076;-87
2021/08/19 00:09:46;;;;;;;9.48;5.22;;;17.40;91.50;;;;;;4862488;29;20077;-84
2021/08/19 00:12:12;;;;;;;8.85;5.55;;;17.40;91.50;;;;;;4861479;29;20525;-87
2021/08/19 00:14:39;;;;;;;11.25;5.68;;;17.40;91.50;;;;;;4862375;29;20049;-85
2021/08/19 00:17:06;;;;;;;8.15;5.22;;;17.40;91.50;;;;;;4862611;29;20057;-84
2021/08/19 00:19:32;;;;;;;12.32;5.90;;;17.40;91.50;;;;;;4862110;29;20090;-85
2021/08/19 00:21:58;;;;;;;9.52;5.32;;;17.40;91.50;;;;;;4862320;29;20057;-84
2021/08/19 00:24:23;;;;;;;11.40;5.80;;;17.40;91.60;;;;;;4862061;29;20041;-86
2021/08/19 00:26:49;;;;;;;11.15;5.65;;;17.40;91.60;;;;;;4861795;29;20112;-85
2021/08/19 00:29:15;;;;;;;11.18;5.60;;;17.40;91.60;;;;;;4861674;29;20057;-85
2021/08/19 00:31:41;;;;;;;10.18;5.45;;;17.40;91.60;;;;;;4861712;29;20164;-84
2021/08/19 00:34:06;;;;;;;10.25;4.88;;;17.40;91.60;;;;;;4862068;29;20053;-84
2021/08/19 00:36:32;;;;;;;8.10;4.63;;;17.40;91.70;;;;;;4861868;29;20077;-84
2021/08/19 00:38:59;;;;;;;7.78;5.32;;;17.40;91.60;;;;;;4861588;29;20057;-85
2021/08/19 00:41:25;;;;;;;9.77;5.25;;;17.40;91.50;;;;;;4862082;29;20443;-85
2021/08/19 00:43:51;;;;;;;10.48;5.43;;;17.40;91.60;;;;;;4861973;29;20058;-87
2021/08/19 00:46:44;;;;;;;7.85;5.30;;;17.40;91.60;;;;;;4861071;29;20045;-84
2021/08/19 00:49:13;;;;;;;8.00;4.97;;;17.30;91.40;;;;;;4859951;29;20109;-85
2021/08/19 00:51:40;;;;;;;11.80;5.25;;;17.30;91.50;;;;;;4861926;29;20050;-84
2021/08/19 00:54:09;;;;;;;8.52;5.15;;;17.30;91.50;;;;;;4861263;29;20060;-84
2021/08/19 00:56:39;;;;;;;11.93;5.45;;;17.40;91.50;;;;;;4861414;29;20052;-84
2021/08/19 00:59:09;;;;;;;8.02;4.70;;;17.40;91.60;;;;;;4862242;29;20053;-84
2021/08/19 01:01:36;;;;;;;8.40;4.90;;;17.40;91.60;;;;;;4861712;29;20049;-84
2021/08/19 01:04:03;;;;;;;10.60;5.00;;;17.40;91.50;;;;;;4861163;29;20137;-83
2021/08/19 01:06:29;;;;;;;11.23;4.90;;;17.40;91.60;;;;;;4861102;29;20069;-84
2021/08/19 01:08:55;;;;;;;7.82;5.03;;;17.40;91.50;;;;;;4860532;29;20054;-85
2021/08/19 01:11:21;;;;;;;7.68;5.07;;;17.40;91.60;;;;;;4860525;29;20509;-84
2021/08/19 01:13:47;;;;;;;9.25;4.90;;;17.40;91.60;;;;;;4862358;29;20058;-84
2021/08/19 01:16:15;;;;;;;8.70;5.03;;;17.40;91.60;;;;;;4864438;29;20095;-84
2021/08/19 01:18:43;;;;;;;8.55;4.80;;;17.40;91.60;;;;;;4864385;29;20057;-84
2021/08/19 01:21:10;;;;;;;8.02;4.53;;;17.40;91.60;;;;;;4864663;29;20179;-83
2021/08/19 01:23:37;;;;;;;7.25;4.38;;;17.40;91.60;;;;;;4865096;29;20057;-84
2021/08/19 01:26:07;;;;;;;6.65;4.60;;;17.40;91.60;;;;;;4864089;29;20121;-84
2021/08/19 01:28:37;;;;;;;8.55;4.82;;;17.40;91.60;;;;;;4863679;29;20060;-84
2021/08/19 01:31:04;;;;;;;9.27;4.85;;;17.40;91.60;;;;;;4864701;29;20510;-83
2021/08/19 01:33:30;;;;;;;8.73;4.60;;;17.40;91.50;;;;;;4864675;29;20498;-84
2021/08/19 01:35:56;;;;;;;7.07;4.30;;;17.40;91.50;;;;;;4863974;29;20049;-84
2021/08/19 01:38:34;;;;;;;6.93;4.40;;;17.40;91.50;;;;;;4863714;29;20061;-84
2021/08/19 01:41:00;;;;;;;7.20;4.30;;;17.30;91.40;;;;;;4863915;29;20069;-83
2021/08/19 01:43:27;;;;;;;8.32;5.05;;;17.30;91.50;;;;;;4863403;29;20056;-84
2021/08/19 01:46:06;;;;;;;9.68;4.75;;;17.30;91.50;;;;;;4863401;29;20403;-84
2021/08/19 01:48:33;;;;;;;10.57;5.18;;;17.40;91.50;;;;;;4863742;29;20088;-85
2021/08/19 01:50:58;;;;;;;10.40;5.10;;;17.30;91.50;;;;;;4863057;29;20545;-84
2021/08/19 01:53:25;;;;;;;8.85;4.78;;;17.30;91.60;;;;;;4863278;29;20144;-83
2021/08/19 01:55:58;;;;;;;6.88;4.10;;;17.30;91.50;;;;;;4863632;29;20124;-84
2021/08/19 01:58:24;;;;;;;10.00;4.70;;;17.30;91.40;;;;;;4864329;29;20490;-84
2021/08/19 02:00:50;;;;;;;8.35;4.40;;;17.30;91.40;;;;;;4864363;29;20140;-83
2021/08/19 02:03:16;;;;;;;7.45;4.70;;;17.30;91.50;;;;;;4863892;29;20080;-84
2021/08/19 02:05:43;;;;;;;8.65;4.75;;;17.30;91.60;;;;;;4863310;29;20521;-84
2021/08/19 02:08:09;;;;;;;8.50;4.75;;;17.30;91.60;;;;;;4863240;29;20053;-85
2021/08/19 02:10:36;;;;;;;6.50;4.00;;;17.30;91.70;;;;;;4863292;29;20058;-83
2021/08/19 02:13:03;;;;;;;7.93;4.72;;;17.30;91.70;;;;;;4864407;29;20061;-84
2021/08/19 02:15:29;;;;;;;8.07;4.20;;;17.30;91.70;;;;;;4864334;29;20132;-83
2021/08/19 02:17:55;;;;;;;10.45;5.40;;;17.30;91.90;;;;;;4863754;29;20091;-83
2021/08/19 02:20:21;;;;;;;9.60;4.93;;;17.30;91.60;;;;;;4864054;29;20054;-84
2021/08/19 02:22:48;;;;;;;9.02;5.85;;;17.30;91.70;;;;;;4863581;29;20510;-84
2021/08/19 02:25:14;;;;;;;8.48;5.10;;;17.30;91.70;;;;;;4862739;29;20056;-84
2021/08/19 02:27:41;;;;;;;9.07;5.88;;;17.30;91.90;;;;;;4863411;29;20424;-84
2021/08/19 02:30:07;;;;;;;8.15;5.15;;;17.30;91.90;;;;;;4863596;29;20046;-82
2021/08/19 02:32:33;;;;;;;8.85;4.97;;;17.30;91.90;;;;;;4863479;29;20046;-84
2021/08/19 02:34:59;;;;;;;10.93;5.63;;;17.30;92.00;;;;;;4863610;29;20050;-84
2021/08/19 02:37:28;;;;;;;12.70;5.80;;;17.30;92.00;;;;;;4864094;29;20053;-85
2021/08/19 02:39:54;;;;;;;8.02;5.43;;;17.30;92.10;;;;;;4863404;29;20081;-84
2021/08/19 02:42:20;;;;;;;7.68;4.95;;;17.30;92.00;;;;;;4863590;29;20056;-83
2021/08/19 02:44:45;;;;;;;6.43;4.25;;;17.30;91.90;;;;;;4863959;29;20038;-83
2021/08/19 02:47:11;;;;;;;9.05;5.50;;;17.30;91.90;;;;;;4863087;29;20639;-84
2021/08/19 02:49:37;;;;;;;10.75;5.13;;;17.30;91.90;;;;;;4863156;29;20460;-84
2021/08/19 02:52:02;;;;;;;6.55;4.28;;;17.30;91.80;;;;;;4863445;29;20109;-83
2021/08/19 02:54:28;;;;;;;9.57;4.95;;;17.30;91.70;;;;;;4861998;29;20049;-84
2021/08/19 02:56:54;;;;;;;7.07;4.60;;;17.30;91.70;;;;;;4863340;29;20053;-84
2021/08/19 02:59:20;;;;;;;7.38;5.00;;;17.30;91.50;;;;;;4863275;29;20102;-84
2021/08/19 03:01:45;;;;;;;8.07;4.93;;;17.30;91.40;;;;;;4863190;29;20529;-84
2021/08/19 03:04:11;;;;;;;11.20;5.35;;;17.30;91.50;;;;;;4862248;29;20085;-84
2021/08/19 03:06:37;;;;;;;9.40;5.45;;;17.30;91.70;;;;;;4861707;29;20474;-84
2021/08/19 03:09:02;;;;;;;9.27;5.13;;;17.30;91.70;;;;;;4862178;29;20053;-84
2021/08/19 03:11:28;;;;;;;8.68;5.43;;;17.30;91.70;;;;;;4861948;29;20077;-84
2021/08/19 03:13:54;;;;;;;6.55;4.40;;;17.30;91.50;;;;;;4861786;29;20049;-84
2021/08/19 03:16:20;;;;;;;7.32;3.65;;;17.20;91.40;;;;;;4862309;29;20383;-84
2021/08/19 03:18:46;;;;;;;8.00;5.63;;;17.20;91.60;;;;;;4861833;29;20057;-84
2021/08/19 03:21:11;;;;;;;8.95;6.05;;;17.30;91.70;;;;;;4861537;29;20140;-83
2021/08/19 03:23:38;;;;;;;9.05;5.80;;;17.20;91.80;;;;;;4861769;29;20045;-84
2021/08/19 03:26:06;;;;;;;9.32;6.22;;;17.20;91.60;;;;;;4861726;29;20494;-84
2021/08/19 03:28:32;;;;;;;8.23;4.82;;;17.30;91.80;;;;;;4861493;29;20057;-84
2021/08/19 03:30:58;;;;;;;7.35;4.43;;;17.20;91.70;;;;;;4862202;29;20053;-84
2021/08/19 03:33:25;;;;;;;10.75;5.80;;;17.20;91.60;;;;;;4862921;29;20057;-84
2021/08/19 03:35:51;;;;;;;11.70;6.53;;;17.20;91.70;;;;;;4862387;29;20049;-85
2021/08/19 03:38:17;;;;;;;10.77;7.32;;;17.30;92.00;;;;;;4862758;29;20049;-84
2021/08/19 03:40:42;;;;;;;11.93;7.78;;;17.30;92.20;;;;;;4862719;29;20110;-84
2021/08/19 03:43:08;;;;;;;14.45;7.50;;;17.20;92.30;;;;;;4862214;29;20053;-84
2021/08/19 03:45:34;;;;;;;11.82;6.53;;;17.20;92.30;;;;;;4862448;29;20136;-83
2021/08/19 03:48:00;;;;;;;11.30;7.43;;;17.20;92.30;;;;;;4862820;29;20085;-85
2021/08/19 03:50:27;;;;;;;9.25;7.32;;;17.20;92.30;;;;;;4860231;29;20137;-84
2021/08/19 03:52:52;;;;;;;14.10;10.00;;;17.20;92.30;;;;;;4861146;29;20517;-83
2021/08/19 03:55:18;;;;;;;10.60;7.75;;;17.20;92.50;;;;;;4861663;29;20045;-84
2021/08/19 03:57:46;;;;;;;12.52;8.52;;;17.20;92.60;;;;;;4861218;29;20053;-84
2021/08/19 04:00:12;;;;;;;16.92;11.98;;;17.20;92.50;;;;;;4861390;29;20057;-84
2021/08/19 04:02:38;;;;;;;13.85;8.50;;;17.20;92.80;;;;;;4861200;29;20525;-85
2021/08/19 04:05:04;;;;;;;12.88;9.70;;;17.20;92.80;;;;;;4861335;29;20100;-84
2021/08/19 04:07:30;;;;;;;11.02;8.10;;;17.20;92.80;;;;;;4861076;29;20060;-83
2021/08/19 04:09:56;;;;;;;13.15;10.80;;;17.20;92.70;;;;;;4860910;29;20054;-83
2021/08/19 04:12:21;;;;;;;10.00;7.22;;;17.20;92.80;;;;;;4861389;29;20236;-83
2021/08/19 04:14:48;;;;;;;15.05;10.75;;;17.20;92.50;;;;;;4861203;29;20057;-84
2021/08/19 04:17:14;;;;;;;13.10;10.55;;;17.20;92.60;;;;;;4861404;29;20045;-83
2021/08/19 04:19:39;;;;;;;10.85;7.50;;;17.20;92.70;;;;;;4861974;29;20053;-83
2021/08/19 04:22:05;;;;;;;13.60;10.80;;;17.10;92.40;;;;;;4862071;29;20061;-84
2021/08/19 04:24:31;;;;;;;15.20;9.45;;;17.10;92.40;;;;;;4861185;29;20479;-84
2021/08/19 04:26:56;;;;;;;15.93;12.73;;;17.10;92.80;;;;;;4861419;29;20065;-84
2021/08/19 04:29:22;;;;;;;11.02;7.82;;;17.10;92.70;;;;;;4861739;29;20057;-84
2021/08/19 04:31:48;;;;;;;12.98;10.38;;;17.10;92.40;;;;;;4861686;29;20171;-83
2021/08/19 04:34:14;;;;;;;17.08;12.98;;;17.10;92.30;;;;;;4861948;29;20495;-83
2021/08/19 04:36:39;;;;;;;11.57;9.15;;;17.10;92.60;;;;;;4861246;29;20107;-84
2021/08/19 04:39:05;;;;;;;17.10;12.02;;;17.10;92.60;;;;;;4861788;29;20054;-84
2021/08/19 04:41:31;;;;;;;11.23;8.57;;;17.10;92.80;;;;;;4860726;29;20491;-83
2021/08/19 04:43:57;;;;;;;14.15;9.95;;;17.10;92.60;;;;;;4861914;29;20061;-84
2021/08/19 04:46:22;;;;;;;15.18;11.63;;;17.10;92.70;;;;;;4860455;29;20138;-83
2021/08/19 04:48:49;;;;;;;18.35;14.00;;;17.10;92.70;;;;;;4862982;29;20505;-83
2021/08/19 04:51:17;;;;;;;13.48;10.68;;;17.10;93.00;;;;;;4864437;29;20105;-84
2021/08/19 04:53:43;;;;;;;18.48;13.57;;;17.10;92.70;;;;;;4864110;29;20102;-83
2021/08/19 04:56:08;;;;;;;14.82;11.35;;;17.10;92.90;;;;;;4864234;29;20046;-84
2021/08/19 04:58:37;;;;;;;12.35;9.27;;;17.10;92.70;;;;;;4864516;29;20053;-83
2021/08/19 05:01:03;;;;;;;17.38;11.43;;;17.10;92.50;;;;;;4863872;29;20089;-83
2021/08/19 05:03:31;;;;;;;11.07;9.77;;;17.10;92.60;;;;;;4863955;29;20053;-83
2021/08/19 05:05:56;;;;;;;16.73;12.85;;;17.10;92.60;;;;;;4863958;29;20048;-84
2021/08/19 05:08:22;;;;;;;16.45;11.15;;;17.10;92.70;;;;;;4864636;29;20558;-83
2021/08/19 05:10:48;;;;;;;14.18;10.75;;;17.10;92.70;;;;;;4864183;29;20077;-83
2021/08/19 05:13:13;;;;;;;17.95;13.38;;;17.20;92.60;;;;;;4863667;29;20057;-84
2021/08/19 05:15:40;;;;;;;16.20;11.18;;;17.20;92.90;;;;;;4864398;29;20049;-83
2021/08/19 05:18:06;;;;;;;13.98;10.43;;;17.20;92.80;;;;;;4864035;29;20053;-84
2021/08/19 05:20:32;;;;;;;15.60;11.18;;;17.20;92.80;;;;;;4863376;29;20057;-83
2021/08/19 05:22:58;;;;;;;19.10;14.15;;;17.20;92.70;;;;;;4864152;29;20061;-84
2021/08/19 05:25:24;;;;;;;15.38;10.63;;;17.20;93.10;;;;;;4864124;29;20045;-85
2021/08/19 05:27:50;;;;;;;12.10;9.88;;;17.20;92.90;;;;;;4863433;29;20193;-84
2021/08/19 05:30:15;;;;;;;17.88;13.55;;;17.20;93.00;;;;;;4863927;29;20128;-84
2021/08/19 05:32:41;;;;;;;17.52;11.90;;;17.20;93.40;;;;;;4863778;29;20068;-84
2021/08/19 05:35:07;;;;;;;17.88;12.75;;;17.20;93.30;;;;;;4863443;29;20060;-83
2021/08/19 05:37:33;;;;;;;14.07;10.93;;;17.20;93.70;;;;;;4863717;29;20418;-83
2021/08/19 05:39:59;;;;;;;13.75;10.75;;;17.30;93.40;;;;;;4864679;29;20049;-83
2021/08/19 05:42:24;;;;;;;15.98;10.45;;;17.30;93.40;;;;;;4863588;29;20057;-84
2021/08/19 05:44:52;;;;;;;15.10;10.98;;;17.30;93.20;;;;;;4863376;29;20053;-83
2021/08/19 05:47:18;;;;;;;17.20;12.98;;;17.30;93.20;;;;;;4863642;29;20395;-84
2021/08/19 05:49:45;;;;;;;13.75;9.77;;;17.30;93.60;;;;;;4863143;29;20061;-83
2021/08/19 05:52:12;;;;;;;17.35;12.07;;;17.30;93.60;;;;;;4863395;29;20054;-83
2021/08/19 05:54:38;;;;;;;15.82;11.38;;;17.30;93.50;;;;;;4863575;29;20058;-83
2021/08/19 05:57:04;;;;;;;16.33;9.95;;;17.30;93.50;;;;;;4863162;29;20045;-83
2021/08/19 05:59:40;;;;;;;16.08;11.85;;;17.30;93.50;;;;;;4861786;29;20124;-83
2021/08/19 06:02:07;;;;;;;15.85;11.05;;;17.30;93.80;;;;;;4863332;29;20573;-83
2021/08/19 06:04:37;;;;;;;16.83;10.57;;;17.30;93.80;;;;;;4863283;29;20063;-83
2021/08/19 06:07:03;;;;;;;17.95;12.05;;;17.30;94.00;;;;;;4863922;29;20053;-83
2021/08/19 06:09:29;;;;;;;17.65;12.00;;;17.30;93.90;;;;;;4862916;29;20056;-83
2021/08/19 06:11:55;;;;;;;15.77;11.70;;;17.40;94.00;;;;;;4862828;29;20053;-83
2021/08/19 06:14:20;;;;;;;13.68;9.98;;;17.40;94.10;;;;;;4863341;29;20053;-82
2021/08/19 06:16:46;;;;;;;14.05;9.65;;;17.40;93.60;;;;;;4862935;29;20549;-83
2021/08/19 06:19:12;;;;;;;12.55;9.30;;;17.40;93.60;;;;;;4863567;29;20172;-83
2021/08/19 06:21:38;;;;;;;12.30;9.13;;;17.40;93.50;;;;;;4864136;29;20053;-83
2021/08/19 06:24:04;;;;;;;11.45;9.13;;;17.40;93.50;;;;;;4863048;29;20057;-81
2021/08/19 06:26:32;;;;;;;11.52;9.25;;;17.40;93.50;;;;;;4862567;29;20120;-80
2021/08/19 06:28:58;;;;;;;13.73;11.88;;;17.40;93.30;;;;;;4861736;29;20144;-80
2021/08/19 06:31:23;;;;;;;15.15;12.15;;;17.40;93.70;;;;;;4862418;29;20056;-81
2021/08/19 06:33:49;;;;;;;11.35;9.52;;;17.40;94.20;;;;;;4863091;29;20486;-82
2021/08/19 06:36:14;;;;;;;17.13;11.32;;;17.40;93.90;;;;;;4863488;29;20050;-83
2021/08/19 06:38:40;;;;;;;18.40;12.23;;;17.40;94.00;;;;;;4862764;29;20058;-83
2021/08/19 06:41:06;;;;;;;16.05;11.40;;;17.40;94.40;;;;;;4862752;29;20405;-83
2021/08/19 06:43:31;;;;;;;20.38;13.30;;;17.40;94.40;;;;;;4862676;29;20140;-83
2021/08/19 06:45:57;;;;;;;19.20;13.25;;;17.40;94.70;;;;;;4862239;29;20081;-83
2021/08/19 06:48:23;;;;;;;17.77;13.38;;;17.40;94.80;;;;;;4862439;29;20060;-83
2021/08/19 06:50:49;;;;;;;14.43;9.32;;;17.40;95.00;;;;;;4862496;29;20103;-83
2021/08/19 06:53:14;;;;;;;15.18;9.93;;;17.50;94.60;;;;;;4861783;29;20076;-84
2021/08/19 06:55:40;;;;;;;15.50;10.93;;;17.50;94.50;;;;;;4862241;29;20554;-84
2021/08/19 06:58:07;;;;;;;12.15;9.73;;;17.50;94.70;;;;;;4862262;29;20102;-84
2021/08/19 07:00:33;;;;;;;13.40;9.45;;;17.50;94.80;;;;;;4861914;29;20061;-84
2021/08/19 07:02:59;;;;;;;13.00;9.10;;;17.50;94.80;;;;;;4862098;29;20379;-85
2021/08/19 07:05:25;;;;;;;13.55;7.78;;;17.50;94.90;;;;;;4862444;29;20061;-85
2021/08/19 07:07:54;;;;;;;13.25;8.40;;;17.50;95.00;;;;;;4862549;29;20053;-84
2021/08/19 07:10:20;;;;;;;11.90;8.10;;;17.50;95.00;;;;;;4862450;29;20053;-84
2021/08/19 07:12:45;;;;;;;13.18;8.35;;;17.50;94.90;;;;;;4862125;29;20125;-84
2021/08/19 07:15:11;;;;;;;12.25;7.85;;;17.50;95.10;;;;;;4862820;29;20113;-85
2021/08/19 07:17:37;;;;;;;11.27;7.22;;;17.50;95.00;;;;;;4862873;29;20413;-85
2021/08/19 07:20:04;;;;;;;12.52;8.15;;;17.50;94.80;;;;;;4862299;29;20049;-85
2021/08/19 07:22:29;;;;;;;10.55;6.80;;;17.50;94.90;;;;;;4862488;29;20565;-85
2021/08/19 07:24:55;;;;;;;11.02;7.40;;;17.50;95.10;;;;;;4862315;29;20137;-84
2021/08/19 07:27:21;;;;;;;12.38;7.15;;;17.50;95.00;;;;;;4860977;29;20068;-84
2021/08/19 07:29:46;;;;;;;10.05;6.70;;;17.50;95.10;;;;;;4862224;29;20474;-84
2021/08/19 07:32:12;;;;;;;9.80;6.88;;;17.50;95.10;;;;;;4862790;29;20092;-84
2021/08/19 07:34:38;;;;;;;10.98;7.47;;;17.60;95.20;;;;;;4862402;29;20068;-84
2021/08/19 07:37:04;;;;;;;10.38;6.72;;;17.50;95.20;;;;;;4862586;29;20466;-85
2021/08/19 07:39:29;;;;;;;10.30;7.05;;;17.50;95.10;;;;;;4862373;29;20076;-85
2021/08/19 07:41:55;;;;;;;8.95;6.63;;;17.50;95.30;;;;;;4861063;29;20421;-84
2021/08/19 07:44:21;;;;;;;10.80;6.40;;;17.50;95.10;;;;;;4862265;29;20053;-85
2021/08/19 07:46:46;;;;;;;9.05;6.70;;;17.50;95.10;;;;;;4862119;29;20066;-84
2021/08/19 07:49:13;;;;;;;8.13;6.40;;;17.50;95.30;;;;;;4862048;29;20053;-84
2021/08/19 07:51:39;;;;;;;9.60;6.80;;;17.50;95.10;;;;;;4862206;29;20045;-84
2021/08/19 07:54:05;;;;;;;8.88;5.93;;;17.50;95.20;;;;;;4862269;29;20494;-85
2021/08/19 07:56:30;;;;;;;10.38;6.32;;;17.50;95.30;;;;;;4861317;29;20052;-84
2021/08/19 07:58:58;;;;;;;9.50;6.55;;;17.60;95.10;;;;;;4862432;29;20544;-85
2021/08/19 08:01:24;;;;;;;9.60;6.88;;;17.60;95.20;;;;;;4862143;29;20050;-84
2021/08/19 08:03:51;;;;;;;7.93;6.07;;;17.60;95.30;;;;;;4861466;29;20049;-85
2021/08/19 08:06:16;;;;;;;9.30;5.95;;;17.60;95.20;;;;;;4861127;29;20508;-84
2021/08/19 08:08:42;;;;;;;10.40;6.88;;;17.60;95.30;;;;;;4861605;29;20053;-84
2021/08/19 08:11:08;;;;;;;12.48;8.32;;;17.60;95.40;;;;;;4861552;29;20057;-84
2021/08/19 08:13:34;;;;;;;11.02;6.95;;;17.60;95.50;;;;;;4861500;29;20054;-85
2021/08/19 08:15:59;;;;;;;9.07;6.70;;;17.60;95.30;;;;;;4860733;29;20077;-83
2021/08/19 08:18:25;;;;;;;9.38;6.40;;;17.60;95.30;;;;;;4861007;29;20140;-83
2021/08/19 08:20:51;;;;;;;14.90;9.02;;;17.70;95.20;;;;;;4861366;29;20049;-82
2021/08/19 08:23:19;;;;;;;13.60;8.38;;;17.70;95.40;;;;;;4861490;29;20585;-82
2021/08/19 08:25:46;;;;;;;13.02;8.90;;;17.70;95.40;;;;;;4863792;29;20053;-81
2021/08/19 08:28:14;;;;;;;10.25;7.20;;;17.70;95.50;;;;;;4864031;29;20125;-82
2021/08/19 08:30:44;;;;;;;10.88;8.18;;;17.70;95.40;;;;;;4863803;29;20056;-83
2021/08/19 08:33:10;;;;;;;12.88;9.13;;;17.70;95.40;;;;;;4864101;29;20501;-83
2021/08/19 08:35:39;;;;;;;12.20;8.57;;;17.70;95.60;;;;;;4864215;29;20434;-83
2021/08/19 08:38:07;;;;;;;13.38;9.15;;;17.70;95.70;;;;;;4863366;29;20077;-84
2021/08/19 08:40:35;;;;;;;12.30;8.95;;;17.70;95.90;;;;;;4864054;29;20091;-84
2021/08/19 08:43:02;;;;;;;13.07;9.10;;;17.70;96.10;;;;;;4865244;29;20049;-84
2021/08/19 08:45:30;;;;;;;11.20;7.88;;;17.80;96.20;;;;;;4864049;29;20058;-84
2021/08/19 08:47:56;;;;;;;10.13;7.38;;;17.80;96.20;;;;;;4863999;29;20057;-84
2021/08/19 08:50:24;;;;;;;10.40;7.68;;;17.80;96.20;;;;;;4864742;29;20049;-84
2021/08/19 08:52:51;;;;;;;10.13;6.68;;;17.80;96.20;;;;;;4864184;29;20069;-83
2021/08/19 08:55:17;;;;;;;11.05;7.55;;;17.80;96.20;;;;;;4864921;29;20085;-83
2021/08/19 08:57:43;;;;;;;10.02;7.53;;;17.90;96.30;;;;;;4865289;29;20438;-84
2021/08/19 09:00:09;;;;;;;13.13;8.38;;;17.90;96.30;;;;;;4864163;29;20512;-84
2021/08/19 09:02:36;;;;;;;14.32;9.68;;;17.90;96.30;;;;;;4864477;29;20061;-85
2021/08/19 09:05:22;;;;;;;13.27;9.35;;;17.90;96.50;;;;;;4864217;29;20109;-85
2021/08/19 09:07:59;;;;;;;14.88;10.18;;;18.00;96.30;;;;;;4864294;29;20152;-85
2021/08/19 09:10:27;;;;;;;18.25;10.20;;;18.00;96.40;;;;;;4864246;29;20406;-85
2021/08/19 09:12:53;;;;;;;16.42;10.90;;;18.00;96.40;;;;;;4863904;29;20562;-84
2021/08/19 09:15:23;;;;;;;16.33;11.18;;;18.10;96.30;;;;;;4864168;29;20054;-85
2021/08/19 09:17:54;;;;;;;13.48;10.48;;;18.10;96.30;;;;;;4864262;29;20117;-85
2021/08/19 09:20:32;;;;;;;18.45;12.70;;;18.10;96.10;;;;;;4863828;29;20053;-84
2021/08/19 09:23:14;;;;;;;15.38;11.02;;;18.10;96.10;;;;;;4864345;29;20053;-85
2021/08/19 09:25:42;;;;;;;17.30;12.68;;;18.10;95.90;;;;;;4864438;29;20486;-85
2021/08/19 09:28:27;;;;;;;20.70;13.25;;;18.10;96.10;;;;;;4863555;29;20105;-85
2021/08/19 09:30:58;;;;;;;20.85;14.25;;;18.10;96.10;;;;;;4864230;29;20076;-85
2021/08/19 09:33:29;;;;;;;24.08;15.48;;;18.20;96.50;;;;;;4863438;29;20050;-85
2021/08/19 09:35:57;;;;;;;22.40;14.23;;;18.20;96.80;;;;;;4863680;29;20105;-85
2021/08/19 09:38:25;;;;;;;19.90;13.70;;;18.20;96.70;;;;;;4863694;29;20497;-85
2021/08/19 09:41:04;;;;;;;18.52;12.02;;;18.20;96.50;;;;;;4863691;29;20057;-85
2021/08/19 09:43:46;;;;;;;22.02;15.10;;;18.30;96.20;;;;;;4863582;29;20057;-85
2021/08/19 09:46:16;;;;;;;22.58;15.57;;;18.30;96.40;;;;;;4863304;29;20053;-85
2021/08/19 09:48:44;;;;;;;21.83;14.00;;;18.30;96.50;;;;;;4862665;29;20057;-86
2021/08/19 09:51:22;;;;;;;24.98;15.95;;;18.30;96.40;;;;;;4862939;29;20504;-86
2021/08/19 09:53:50;;;;;;;20.75;14.07;;;18.40;96.40;;;;;;4863515;29;20057;-86
2021/08/19 09:56:38;;;;;;;22.35;15.43;;;18.40;96.20;;;;;;4863659;29;20053;-85
2021/08/19 09:59:16;;;;;;;23.77;15.77;;;18.40;96.10;;;;;;4864134;29;20497;-85
2021/08/19 10:01:42;;;;;;;19.23;13.32;;;18.40;96.10;;;;;;4863675;29;20400;-85
2021/08/19 10:04:09;;;;;;;21.95;13.93;;;18.50;96.10;;;;;;4864092;29;20110;-85
2021/08/19 10:06:34;;;;;;;21.85;14.02;;;18.50;96.10;;;;;;4864397;29;20053;-87
2021/08/19 10:09:00;;;;;;;23.92;13.98;;;18.50;96.20;;;;;;4863193;29;20057;-85
2021/08/19 10:11:27;;;;;;;19.40;13.15;;;18.50;96.30;;;;;;4864073;29;20049;-85
2021/08/19 10:13:53;;;;;;;22.10;13.38;;;18.60;96.40;;;;;;4863269;29;20081;-84
2021/08/19 10:16:20;;;;;;;22.17;12.57;;;18.60;96.30;;;;;;4863552;29;20061;-85
2021/08/19 10:18:48;;;;;;;18.40;12.38;;;18.70;96.10;;;;;;4864213;29;20050;-85
2021/08/19 10:21:16;;;;;;;19.15;11.80;;;18.70;96.00;;;;;;4864579;29;20049;-84
2021/08/19 10:23:43;;;;;;;20.63;12.27;;;18.70;95.90;;;;;;4862915;29;20058;-85
2021/08/19 10:26:11;;;;;;;24.45;13.00;;;18.70;95.90;;;;;;4862531;29;20050;-85
2021/08/19 10:28:54;;;;;;;21.45;12.02;;;18.80;96.00;;;;;;4863087;29;20549;-86
2021/08/19 10:31:39;;;;;;;21.02;12.13;;;18.80;96.10;;;;;;4863059;29;20471;-84
2021/08/19 10:34:06;;;;;;;20.77;11.60;;;18.80;95.90;;;;;;4863534;29;20060;-85
2021/08/19 10:36:38;;;;;;;16.40;10.60;;;18.90;96.00;;;;;;4862345;29;20059;-85
2021/08/19 10:39:37;;;;;;;15.95;9.93;;;18.90;95.70;;;;;;4862590;29;20057;-84
2021/08/19 10:42:07;;;;;;;12.57;8.77;;;18.90;95.30;;;;;;4841835;29;20045;-85
2021/08/19 10:44:39;;;;;;;18.02;9.25;;;18.90;95.40;;;;;;4862220;29;20057;-85
2021/08/19 10:47:05;;;;;;;11.07;7.93;;;18.90;95.40;;;;;;4861827;29;20049;-86
2021/08/19 10:49:32;;;;;;;10.90;7.57;;;18.90;95.30;;;;;;4862675;29;20497;-84
2021/08/19 10:52:24;;;;;;;11.10;7.00;;;18.90;95.20;;;;;;4862171;29;20054;-85
2021/08/19 10:54:50;;;;;;;10.98;6.60;;;18.80;95.00;;;;;;4857611;29;20132;-85
2021/08/19 10:57:25;;;;;;;10.85;6.57;;;18.80;95.20;;;;;;4862588;29;20140;-83
2021/08/19 10:59:57;;;;;;;10.80;7.30;;;18.70;95.20;;;;;;4862118;29;20129;-85
2021/08/19 11:02:40;;;;;;;11.00;8.07;;;18.70;95.30;;;;;;4863163;29;20053;-84
2021/08/19 11:05:11;;;;;;;10.43;7.32;;;18.60;95.40;;;;;;4862698;29;20057;-85
2021/08/19 11:07:51;;;;;;;11.25;7.47;;;18.60;95.70;;;;;;4862601;29;20418;-85
2021/08/19 11:10:31;;;;;;;9.57;7.43;;;18.60;95.60;;;;;;4862703;29;20057;-86
2021/08/19 11:13:11;;;;;;;7.07;4.70;;;18.60;95.70;;;;;;4862378;29;20057;-85
2021/08/19 11:15:51;;;;;;;6.05;3.47;;;18.60;95.60;;;;;;4862833;29;20053;-84
2021/08/19 11:18:28;;;;;;;5.03;3.22;;;18.70;95.60;;;;;;4862677;29;20189;-85
2021/08/19 11:20:54;;;;;;;8.07;5.13;;;18.60;95.40;;;;;;4861772;29;20087;-85
2021/08/19 11:23:36;;;;;;;7.95;5.07;;;18.70;95.30;;;;;;4862165;29;20071;-84
2021/08/19 11:26:15;;;;;;;6.28;4.00;;;18.70;95.20;;;;;;4861298;29;20430;-84
2021/08/19 11:28:46;;;;;;;7.13;4.75;;;18.70;95.30;;;;;;4861742;29;20463;-84
2021/08/19 11:31:24;;;;;;;6.57;4.70;;;18.70;95.10;;;;;;4861642;29;20057;-85
2021/08/19 11:34:01;;;;;;;6.78;4.10;;;18.70;95.00;;;;;;4861826;29;20144;-85
2021/08/19 11:36:27;;;;;;;8.50;4.10;;;18.70;94.70;;;;;;4861794;29;20145;-85
2021/08/19 11:39:02;;;;;;;8.15;4.45;;;18.70;94.70;;;;;;4861958;29;20413;-85
2021/08/19 11:41:29;;;;;;;8.05;5.13;;;18.70;94.50;;;;;;4861333;29;20128;-85
2021/08/19 11:43:58;;;;;;;7.53;5.07;;;18.70;94.60;;;;;;4861852;29;20405;-86
2021/08/19 11:46:24;;;;;;;7.63;5.45;;;18.80;94.60;;;;;;4861974;29;20053;-86
2021/08/19 11:48:52;;;;;;;8.10;4.40;;;18.80;94.50;;;;;;4861710;29;20185;-87
2021/08/19 11:51:33;;;;;;;7.97;4.47;;;18.80;94.70;;;;;;4861793;29;20061;-86
2021/08/19 11:54:04;;;;;;;6.35;4.57;;;18.80;94.50;;;;;;4861939;29;20057;-86
2021/08/19 11:56:35;;;;;;;8.10;5.15;;;18.80;94.50;;;;;;4862051;29;20109;-87
2021/08/19 11:59:18;;;;;;;7.45;4.65;;;18.90;94.50;;;;;;4862016;29;20085;-87
2021/08/19 12:01:52;;;;;;;7.40;4.72;;;18.90;94.40;;;;;;4861317;29;20056;-87
2021/08/19 12:04:28;;;;;;;6.82;4.80;;;18.90;94.40;;;;;;4861647;29;20102;-85
2021/08/19 12:06:56;;;;;;;5.88;4.40;;;18.90;94.30;;;;;;4862897;29;20057;-86
2021/08/19 12:09:23;;;;;;;6.10;4.40;;;18.90;94.50;;;;;;4861630;29;20533;-86
2021/08/19 12:11:49;;;;;;;6.25;4.57;;;18.90;94.30;;;;;;4861493;29;20053;-85
2021/08/19 12:14:15;;;;;;;8.55;4.97;;;18.90;94.20;;;;;;4861681;29;20057;-86
2021/08/19 12:16:49;;;;;;;7.53;4.93;;;18.90;94.20;;;;;;4860686;29;20050;-86
2021/08/19 12:19:16;;;;;;;6.43;4.63;;;18.90;94.10;;;;;;4861468;29;20057;-85
2021/08/19 12:21:54;;;;;;;7.68;5.30;;;18.90;94.10;;;;;;4861460;29;20057;-85
2021/08/19 12:24:22;;;;;;;7.38;4.57;;;19.00;94.10;;;;;;4861024;29;20077;-87
2021/08/19 12:27:07;;;;;;;6.90;4.57;;;18.90;94.10;;;;;;4862326;29;20061;-85
2021/08/19 12:29:56;;;;;;;6.65;4.47;;;18.90;93.90;;;;;;4860423;29;20554;-85
2021/08/19 12:32:25;;;;;;;6.82;4.90;;;18.90;93.90;;;;;;4861073;29;20071;-83
2021/08/19 12:34:58;;;;;;;5.97;4.05;;;18.90;94.10;;;;;;4860278;29;20057;-82
2021/08/19 12:37:25;;;;;;;7.03;4.38;;;18.90;94.00;;;;;;4860435;29;20076;-83
2021/08/19 12:39:51;;;;;;;6.32;4.25;;;19.00;94.00;;;;;;4860168;29;20054;-83
2021/08/19 12:42:17;;;;;;;6.53;3.72;;;19.00;94.00;;;;;;4860674;29;20052;-84